Time;durP1;ratioP1;P1;durP2;ratioP2;P2;SDS_P1;SDS_P2;PMS_P1;PMS_P2;Temp;Humidity;BMP_temperature;BMP_pressure;BME280_temperature;BME280_humidity;BME280_pressure;Samples;Min_cycle;Max_cycle;Signal;HPM_P1;HPM_P2
2023/05/22 00:01:27;;;;;;;;;;;22.40;60.20;;;;;;5074369;28;19976;-53
2023/05/22 00:03:53;;;;;;;;;;;22.40;59.90;;;;;;5076715;28;19925;-53
2023/05/22 00:06:18;;;;;;;;;;;22.40;59.80;;;;;;5074576;28;19962;-52
2023/05/22 00:08:44;;;;;;;;;;;22.40;60.10;;;;;;5064432;28;19950;-53
2023/05/22 00:11:09;;;;;;;;;;;22.40;59.60;;;;;;5092805;28;19969;-53
2023/05/22 00:13:35;;;;;;;;;;;22.30;59.80;;;;;;5074593;28;20577;-53
2023/05/22 00:16:00;;;;;;;;;;;22.40;59.40;;;;;;5078346;28;19963;-53
2023/05/22 00:18:26;;;;;;;;;;;22.40;59.80;;;;;;5091565;28;19912;-53
2023/05/22 00:20:52;;;;;;;;;;;22.30;60.00;;;;;;5091344;28;20403;-53
2023/05/22 00:23:17;;;;;;;;;;;22.40;59.60;;;;;;5080851;28;19917;-53
2023/05/22 00:25:43;;;;;;;;;;;22.30;59.50;;;;;;5082672;28;19973;-53
2023/05/22 00:28:09;;;;;;;;;;;22.40;59.60;;;;;;5084069;28;19916;-53
2023/05/22 00:30:35;;;;;;;;;;;22.40;59.30;;;;;;5082097;28;19919;-53
2023/05/22 00:33:01;;;;;;;;;;;22.30;59.30;;;;;;5077827;28;19912;-53
2023/05/22 00:35:26;;;;;;;;;;;22.30;59.20;;;;;;5084581;28;20652;-53
2023/05/22 00:37:52;;;;;;;;;;;22.30;59.40;;;;;;5081506;28;19931;-53
2023/05/22 00:40:17;;;;;;;;;;;22.30;59.20;;;;;;5082989;28;20004;-53
2023/05/22 00:42:43;;;;;;;;;;;22.30;59.20;;;;;;5079870;28;19920;-53
2023/05/22 00:45:09;;;;;;;;;;;22.30;59.30;;;;;;5063056;28;20429;-53
2023/05/22 00:47:34;;;;;;;;;;;22.30;59.00;;;;;;5083712;28;19935;-53
2023/05/22 00:50:00;;;;;;;;;;;22.30;59.20;;;;;;5073380;28;19920;-53
2023/05/22 00:52:25;;;;;;;;;;;22.30;58.80;;;;;;5079975;28;19916;-52
2023/05/22 00:54:51;;;;;;;;;;;22.30;58.90;;;;;;5080803;28;19920;-53
2023/05/22 00:57:16;;;;;;;;;;;22.30;58.90;;;;;;5081273;28;20012;-53
2023/05/22 00:59:42;;;;;;;;;;;22.30;58.70;;;;;;5081355;28;19916;-53
2023/05/22 01:02:07;;;;;;;;;;;22.30;58.80;;;;;;5079041;28;19931;-53
2023/05/22 01:04:34;;;;;;;;;;;22.30;59.10;;;;;;5052775;28;20288;-53
2023/05/22 01:07:01;;;;;;;;;;;22.30;58.90;;;;;;5044927;28;19970;-53
2023/05/22 01:09:27;;;;;;;;;;;22.30;58.70;;;;;;5055859;28;19916;-53
2023/05/22 01:11:53;;;;;;;;;;;22.30;58.60;;;;;;5081930;28;19946;-53
2023/05/22 01:14:38;;;;;;;;;;;22.30;58.60;;;;;;5083901;28;19916;-53
2023/05/22 01:17:07;;;;;;;;;;;22.30;58.50;;;;;;5079539;28;19920;-53
2023/05/22 01:19:46;;;;;;;;;;;22.30;58.30;;;;;;5077099;28;19939;-52
2023/05/22 01:22:11;;;;;;;;;;;22.30;58.50;;;;;;5040658;28;19916;-53
2023/05/22 01:24:52;;;;;;;;;;;22.30;58.30;;;;;;5060842;28;19912;-53
2023/05/22 01:27:33;;;;;;;;;;;22.30;58.00;;;;;;5057007;28;20303;-53
2023/05/22 01:30:03;;;;;;;;;;;22.30;57.80;;;;;;5057324;28;19916;-53
2023/05/22 01:32:28;;;;;;;;;;;22.30;57.60;;;;;;5079667;28;20003;-53
2023/05/22 01:34:55;;;;;;;;;;;22.40;57.60;;;;;;5061696;28;20022;-52
2023/05/22 01:37:21;;;;;;;;;;;22.40;57.40;;;;;;5057604;28;20035;-53
2023/05/22 01:39:46;;;;;;;;;;;22.40;57.30;;;;;;5053406;28;20010;-53
2023/05/22 01:42:12;;;;;;;;;;;22.40;57.10;;;;;;5052548;28;19924;-53
2023/05/22 01:44:37;;;;;;;;;;;22.40;57.10;;;;;;5078591;28;20001;-54
2023/05/22 01:47:04;;;;;;;;;;;22.40;57.00;;;;;;5078962;28;19973;-53
2023/05/22 01:49:30;;;;;;;;;;;22.40;57.00;;;;;;5082629;28;20007;-53
2023/05/22 01:52:17;;;;;;;;;;;22.40;57.00;;;;;;5079608;28;19955;-53
2023/05/22 01:54:44;;;;;;;;;;;22.40;57.00;;;;;;5059333;28;19923;-53
2023/05/22 01:57:16;;;;;;;;;;;22.40;57.00;;;;;;5081408;28;19920;-53
2023/05/22 01:59:47;;;;;;;;;;;22.40;57.00;;;;;;5053738;28;19912;-53
2023/05/22 02:02:14;;;;;;;;;;;22.40;57.00;;;;;;5044540;28;19919;-54
2023/05/22 02:04:41;;;;;;;;;;;22.40;57.10;;;;;;5081356;28;19927;-53
2023/05/22 02:07:06;;;;;;;;;;;22.40;57.00;;;;;;5081198;28;20392;-53
2023/05/22 02:09:32;;;;;;;;;;;22.40;57.00;;;;;;5055224;28;19919;-53
2023/05/22 02:11:57;;;;;;;;;;;22.40;57.00;;;;;;5067945;28;20398;-53
2023/05/22 02:14:23;;;;;;;;;;;22.40;57.00;;;;;;5087344;28;20505;-53
2023/05/22 02:16:49;;;;;;;;;;;22.30;56.90;;;;;;5068835;28;20055;-53
2023/05/22 02:19:14;;;;;;;;;;;22.30;56.90;;;;;;5078890;28;20534;-54
2023/05/22 02:21:40;;;;;;;;;;;22.30;56.90;;;;;;5082153;28;19916;-53
2023/05/22 02:24:05;;;;;;;;;;;22.30;57.00;;;;;;5078786;28;19990;-54
2023/05/22 02:26:31;;;;;;;;;;;22.30;56.90;;;;;;5080961;28;20376;-53
2023/05/22 02:28:57;;;;;;;;;;;22.30;56.90;;;;;;5079588;28;19912;-53
2023/05/22 02:31:22;;;;;;;;;;;22.30;56.90;;;;;;5079844;28;20299;-53
2023/05/22 02:33:48;;;;;;;;;;;22.30;56.90;;;;;;5082412;28;19964;-53
2023/05/22 02:36:13;;;;;;;;;;;22.30;56.90;;;;;;5083922;28;19981;-54
2023/05/22 02:38:38;;;;;;;;;;;22.30;56.80;;;;;;5062126;28;19916;-54
2023/05/22 02:41:04;;;;;;;;;;;22.30;56.90;;;;;;5080496;28;20015;-53
2023/05/22 02:43:30;;;;;;;;;;;22.20;56.70;;;;;;5079166;28;19953;-53
2023/05/22 02:45:55;;;;;;;;;;;22.20;56.80;;;;;;5078585;28;21545;-54
2023/05/22 02:48:21;;;;;;;;;;;22.20;56.80;;;;;;5081353;28;20296;-53
2023/05/22 02:50:49;;;;;;;;;;;22.20;56.90;;;;;;5079094;28;20372;-54
2023/05/22 02:53:16;;;;;;;;;;;22.20;56.60;;;;;;5077087;28;19916;-54
2023/05/22 02:55:41;;;;;;;;;;;22.20;56.70;;;;;;5078791;28;19945;-53
2023/05/22 02:58:10;;;;;;;;;;;22.20;56.70;;;;;;5078932;28;19923;-54
2023/05/22 03:00:38;;;;;;;;;;;22.20;56.60;;;;;;5074721;28;20292;-54
2023/05/22 03:03:04;;;;;;;;;;;22.20;56.60;;;;;;5076299;28;19922;-53
2023/05/22 03:05:30;;;;;;;;;;;22.20;56.60;;;;;;5079083;28;19912;-53
2023/05/22 03:07:56;;;;;;;;;;;22.10;56.40;;;;;;5080407;28;20375;-53
2023/05/22 03:10:22;;;;;;;;;;;22.10;56.50;;;;;;5081833;28;19916;-53
2023/05/22 03:12:47;;;;;;;;;;;22.10;56.50;;;;;;5077942;28;19916;-53
2023/05/22 03:15:13;;;;;;;;;;;22.10;56.40;;;;;;5080160;28;19928;-54
2023/05/22 03:17:38;;;;;;;;;;;22.10;56.20;;;;;;5077805;28;20010;-53
2023/05/22 03:20:05;;;;;;;;;;;22.10;56.20;;;;;;5074791;28;20334;-53
2023/05/22 03:22:31;;;;;;;;;;;22.10;56.20;;;;;;5078526;28;19995;-53
2023/05/22 03:24:56;;;;;;;;;;;22.10;56.30;;;;;;5073195;28;20261;-53
2023/05/22 03:27:21;;;;;;;;;;;22.10;56.10;;;;;;5084609;28;19913;-53
2023/05/22 03:29:47;;;;;;;;;;;22.10;56.10;;;;;;5081749;28;20348;-53
2023/05/22 03:32:12;;;;;;;;;;;22.10;56.40;;;;;;5083961;28;20272;-53
2023/05/22 03:34:38;;;;;;;;;;;22.10;56.10;;;;;;5079480;28;19931;-53
2023/05/22 03:37:03;;;;;;;;;;;22.10;56.30;;;;;;5082448;28;19943;-53
2023/05/22 03:39:29;;;;;;;;;;;22.10;56.10;;;;;;5079237;28;19963;-53
2023/05/22 03:41:54;;;;;;;;;;;22.10;56.00;;;;;;5081751;28;19959;-53
2023/05/22 03:44:20;;;;;;;;;;;22.10;55.90;;;;;;5084158;28;19952;-53
2023/05/22 03:46:45;;;;;;;;;;;22.10;55.80;;;;;;5081350;28;19973;-53
2023/05/22 03:49:11;;;;;;;;;;;22.10;55.60;;;;;;5083232;28;19913;-53
2023/05/22 03:51:36;;;;;;;;;;;22.10;55.60;;;;;;5087200;28;20364;-53
2023/05/22 03:54:02;;;;;;;;;;;22.10;55.60;;;;;;5093780;28;20332;-53
2023/05/22 03:56:27;;;;;;;;;;;22.10;55.60;;;;;;5093665;28;20276;-53
2023/05/22 03:58:53;;;;;;;;;;;22.10;55.60;;;;;;5092424;28;20372;-53
2023/05/22 04:01:18;;;;;;;;;;;22.10;55.30;;;;;;5098596;28;19923;-53
2023/05/22 04:03:44;;;;;;;;;;;22.10;55.40;;;;;;5098817;28;19958;-52
2023/05/22 04:06:09;;;;;;;;;;;22.20;55.20;;;;;;5091416;28;19912;-52
2023/05/22 04:08:35;;;;;;;;;;;22.20;55.30;;;;;;5091372;28;19912;-53
2023/05/22 04:11:01;;;;;;;;;;;22.20;55.40;;;;;;5056277;28;19916;-53
2023/05/22 04:13:27;;;;;;;;;;;22.10;55.10;;;;;;5057320;28;19922;-53
2023/05/22 04:15:52;;;;;;;;;;;22.10;55.10;;;;;;5081715;28;20006;-53
2023/05/22 04:18:18;;;;;;;;;;;22.10;55.30;;;;;;5075034;28;19920;-52
2023/05/22 04:20:43;;;;;;;;;;;22.10;55.10;;;;;;5092130;28;19916;-53
2023/05/22 04:23:09;;;;;;;;;;;22.10;55.30;;;;;;5087661;28;19917;-53
2023/05/22 04:25:35;;;;;;;;;;;22.10;55.10;;;;;;5085316;28;19916;-53
2023/05/22 04:28:02;;;;;;;;;;;22.10;55.10;;;;;;5053528;28;19956;-53
2023/05/22 04:30:28;;;;;;;;;;;22.10;55.00;;;;;;5082693;28;19935;-53
2023/05/22 04:32:55;;;;;;;;;;;22.10;55.00;;;;;;5083159;28;19957;-53
2023/05/22 04:35:21;;;;;;;;;;;22.10;55.30;;;;;;5056443;28;19913;-53
2023/05/22 04:37:46;;;;;;;;;;;22.10;54.90;;;;;;5083786;28;19912;-52
2023/05/22 04:40:13;;;;;;;;;;;22.10;54.70;;;;;;5083539;28;20326;-53
2023/05/22 04:42:39;;;;;;;;;;;22.10;54.80;;;;;;5083547;28;19935;-53
2023/05/22 04:45:05;;;;;;;;;;;22.10;54.60;;;;;;5083671;28;20338;-53
2023/05/22 04:47:30;;;;;;;;;;;22.00;55.00;;;;;;5083864;28;21080;-53
2023/05/22 04:49:59;;;;;;;;;;;22.10;54.70;;;;;;5082923;28;20399;-53
2023/05/22 04:52:27;;;;;;;;;;;22.00;54.70;;;;;;5079792;28;19939;-53
2023/05/22 04:54:54;;;;;;;;;;;22.00;55.00;;;;;;5082459;28;20167;-53
2023/05/22 04:57:20;;;;;;;;;;;21.90;54.40;;;;;;5079954;28;20371;-53
2023/05/22 04:59:46;;;;;;;;;;;22.00;54.60;;;;;;5081764;28;19912;-53
2023/05/22 05:02:12;;;;;;;;;;;22.00;54.50;;;;;;5075029;28;20057;-53
2023/05/22 05:04:37;;;;;;;;;;;22.00;54.80;;;;;;5080808;28;19912;-53
2023/05/22 05:07:03;;;;;;;;;;;21.90;54.10;;;;;;5080248;28;19920;-53
2023/05/22 05:09:29;;;;;;;;;;;21.90;54.30;;;;;;5077959;28;20407;-52
2023/05/22 05:11:54;;;;;;;;;;;21.90;54.20;;;;;;5063274;28;19916;-53
2023/05/22 05:14:20;;;;;;;;;;;21.90;54.80;;;;;;5087121;28;19941;-53
2023/05/22 05:16:46;;;;;;;;;;;21.80;54.30;;;;;;5086425;28;19935;-53
2023/05/22 05:19:11;;;;;;;;;;;21.80;54.10;;;;;;5063196;28;19963;-53
2023/05/22 05:21:37;;;;;;;;;;;21.80;54.00;;;;;;5063667;28;19912;-53
2023/05/22 05:24:03;;;;;;;;;;;21.80;53.80;;;;;;5081986;28;19916;-53
2023/05/22 05:26:28;;;;;;;;;;;21.90;53.70;;;;;;5083287;28;20066;-52
2023/05/22 05:28:55;;;;;;;;;;;21.80;54.10;;;;;;5080144;28;19970;-52
2023/05/22 05:31:21;;;;;;;;;;;21.90;54.00;;;;;;5082981;28;19976;-53
2023/05/22 05:33:47;;;;;;;;;;;21.90;54.00;;;;;;5054443;28;19956;-52
2023/05/22 05:36:13;;;;;;;;;;;21.80;53.30;;;;;;5053935;28;20390;-52
2023/05/22 05:38:38;;;;;;;;;;;21.90;53.40;;;;;;5081779;28;19916;-53
2023/05/22 05:41:04;;;;;;;;;;;21.90;53.70;;;;;;5077730;28;19916;-53
2023/05/22 05:43:30;;;;;;;;;;;21.90;53.30;;;;;;5081443;28;19952;-53
2023/05/22 05:45:56;;;;;;;;;;;21.90;53.40;;;;;;5077874;28;19916;-53
2023/05/22 05:48:21;;;;;;;;;;;21.90;53.60;;;;;;5062538;28;19958;-53
2023/05/22 05:50:46;;;;;;;;;;;21.90;53.40;;;;;;5079067;28;20030;-53
2023/05/22 05:53:12;;;;;;;;;;;21.90;53.20;;;;;;5061705;28;19954;-53
2023/05/22 05:55:37;;;;;;;;;;;21.90;53.00;;;;;;5081027;28;19991;-52
2023/05/22 05:58:03;;;;;;;;;;;21.90;52.90;;;;;;5078342;28;20019;-53
2023/05/22 06:00:28;;;;;;;;;;;21.90;53.10;;;;;;5059425;28;19921;-53
2023/05/22 06:02:54;;;;;;;;;;;21.90;53.10;;;;;;5076608;28;19976;-53
2023/05/22 06:05:20;;;;;;;;;;;21.90;52.80;;;;;;5081239;28;20372;-53
2023/05/22 06:07:47;;;;;;;;;;;21.90;52.90;;;;;;5078185;28;19927;-53
2023/05/22 06:10:12;;;;;;;;;;;21.90;52.70;;;;;;5080898;28;20491;-52
2023/05/22 06:12:38;;;;;;;;;;;21.90;52.70;;;;;;5083784;28;19939;-52
2023/05/22 06:15:04;;;;;;;;;;;22.00;52.60;;;;;;5087185;28;20296;-53
2023/05/22 06:17:30;;;;;;;;;;;22.00;52.60;;;;;;5075028;28;20384;-52
2023/05/22 06:19:55;;;;;;;;;;;22.00;52.60;;;;;;5077879;28;19919;-53
2023/05/22 06:22:24;;;;;;;;;;;22.00;52.50;;;;;;5080174;28;19981;-53
2023/05/22 06:24:53;;;;;;;;;;;22.00;52.50;;;;;;5083542;28;19942;-53
2023/05/22 06:27:19;;;;;;;;;;;22.00;52.40;;;;;;5080799;28;19912;-53
2023/05/22 06:29:44;;;;;;;;;;;22.00;52.40;;;;;;5076300;28;19916;-52
2023/05/22 06:32:10;;;;;;;;;;;22.00;52.90;;;;;;5053237;28;19923;-52
2023/05/22 06:34:35;;;;;;;;;;;22.10;52.20;;;;;;5085653;28;19908;-53
2023/05/22 06:37:02;;;;;;;;;;;22.10;52.20;;;;;;5086201;28;19916;-53
2023/05/22 06:39:28;;;;;;;;;;;22.00;51.90;;;;;;5069825;28;20371;-52
2023/05/22 06:41:53;;;;;;;;;;;22.00;51.90;;;;;;5091949;28;19973;-53
2023/05/22 06:44:19;;;;;;;;;;;22.10;51.80;;;;;;5081881;28;19946;-53
2023/05/22 06:46:44;;;;;;;;;;;22.00;51.80;;;;;;5088346;28;19978;-53
2023/05/22 06:49:10;;;;;;;;;;;22.10;51.90;;;;;;5066186;28;19915;-53
2023/05/22 06:51:35;;;;;;;;;;;22.10;51.70;;;;;;5076400;28;20335;-53
2023/05/22 06:54:03;;;;;;;;;;;22.10;51.60;;;;;;5089976;28;19913;-52
2023/05/22 06:56:28;;;;;;;;;;;22.00;51.60;;;;;;5088190;28;20366;-52
2023/05/22 06:58:54;;;;;;;;;;;22.10;51.50;;;;;;5066281;28;20007;-52
2023/05/22 07:01:20;;;;;;;;;;;22.10;51.70;;;;;;5086242;28;20369;-52
2023/05/22 07:03:45;;;;;;;;;;;22.20;51.70;;;;;;5077816;28;19913;-53
2023/05/22 07:06:12;;;;;;;;;;;22.20;51.80;;;;;;5091391;28;19952;-52
2023/05/22 07:08:37;;;;;;;;;;;22.20;51.80;;;;;;5069569;28;19965;-52
2023/05/22 07:11:05;;;;;;;;;;;22.20;51.70;;;;;;5092390;28;19920;-52
2023/05/22 07:13:31;;;;;;;;;;;22.20;51.70;;;;;;5077932;28;19912;-52
2023/05/22 07:15:59;;;;;;;;;;;22.20;51.70;;;;;;5094833;28;20291;-52
2023/05/22 07:18:25;;;;;;;;;;;22.20;51.60;;;;;;5073813;28;19922;-53
2023/05/22 07:20:50;;;;;;;;;;;22.30;51.70;;;;;;5078686;28;20288;-54
2023/05/22 07:23:15;;;;;;;;;;;22.30;52.00;;;;;;5065745;28;19912;-53
2023/05/22 07:25:41;;;;;;;;;;;22.30;51.50;;;;;;5074476;28;19915;-53
2023/05/22 07:28:08;;;;;;;;;;;22.30;51.30;;;;;;5085671;28;21290;-53
2023/05/22 07:30:37;;;;;;;;;;;22.30;51.30;;;;;;5052135;28;20422;-53
2023/05/22 07:33:04;;;;;;;;;;;22.40;51.40;;;;;;5088202;28;19923;-53
2023/05/22 07:35:29;;;;;;;;;;;22.40;51.00;;;;;;5070227;28;19916;-54
2023/05/22 07:37:55;;;;;;;;;;;22.40;50.80;;;;;;5064967;28;19912;-54
2023/05/22 07:40:20;;;;;;;;;;;22.50;51.00;;;;;;5065716;28;19958;-54
2023/05/22 07:42:46;;;;;;;;;;;22.50;51.20;;;;;;5083880;28;19938;-54
2023/05/22 07:45:11;;;;;;;;;;;22.60;51.20;;;;;;5090461;28;19998;-54
2023/05/22 07:47:37;;;;;;;;;;;22.60;51.30;;;;;;5090274;28;19924;-54
2023/05/22 07:50:03;;;;;;;;;;;22.60;51.30;;;;;;5073919;28;20272;-54
2023/05/22 07:52:30;;;;;;;;;;;22.70;51.30;;;;;;5070179;28;19912;-54
2023/05/22 07:54:56;;;;;;;;;;;22.70;50.70;;;;;;5086477;28;20302;-54
2023/05/22 07:57:21;;;;;;;;;;;22.70;51.00;;;;;;5083139;28;19916;-54
2023/05/22 07:59:47;;;;;;;;;;;22.70;51.10;;;;;;5087841;28;19912;-55
2023/05/22 08:02:13;;;;;;;;;;;22.80;50.60;;;;;;5065558;28;19916;-54
2023/05/22 08:04:38;;;;;;;;;;;22.80;49.90;;;;;;5086148;28;19912;-54
2023/05/22 08:07:04;;;;;;;;;;;22.90;49.90;;;;;;5088080;28;19947;-54
2023/05/22 08:09:30;;;;;;;;;;;22.90;49.80;;;;;;5059745;28;20007;-54
2023/05/22 08:11:55;;;;;;;;;;;22.90;50.00;;;;;;5088192;28;20006;-54
2023/05/22 08:14:21;;;;;;;;;;;22.90;50.00;;;;;;5091978;28;20003;-53
2023/05/22 08:16:46;;;;;;;;;;;23.00;50.10;;;;;;5073180;28;19954;-55
2023/05/22 08:19:11;;;;;;;;;;;23.00;50.10;;;;;;5081072;28;19917;-54
2023/05/22 08:21:37;;;;;;;;;;;23.00;49.90;;;;;;5084267;28;21010;-54
2023/05/22 08:24:03;;;;;;;;;;;23.00;49.70;;;;;;5086429;28;19918;-54
2023/05/22 08:26:28;;;;;;;;;;;23.00;49.80;;;;;;5082132;28;20468;-53
2023/05/22 08:28:54;;;;;;;;;;;23.00;50.00;;;;;;5083183;28;20039;-54
2023/05/22 08:31:19;;;;;;;;;;;23.10;49.60;;;;;;5084921;28;19958;-55
2023/05/22 08:33:45;;;;;;;;;;;23.10;49.90;;;;;;5089493;28;19964;-54
2023/05/22 08:36:12;;;;;;;;;;;23.20;49.70;;;;;;5094166;28;19945;-54
2023/05/22 08:38:37;;;;;;;;;;;23.10;49.40;;;;;;5071396;28;19916;-54
2023/05/22 08:41:03;;;;;;;;;;;23.10;49.30;;;;;;5069968;28;19919;-54
2023/05/22 08:43:28;;;;;;;;;;;23.10;49.60;;;;;;5064380;28;19969;-54
2023/05/22 08:45:58;;;;;;;;;;;23.10;49.30;;;;;;5086254;28;19920;-54
2023/05/22 08:48:24;;;;;;;;;;;23.20;49.00;;;;;;5089762;28;20018;-53
2023/05/22 08:50:56;;;;;;;;;;;23.20;49.40;;;;;;5060930;28;19996;-54
2023/05/22 08:53:22;;;;;;;;;;;23.20;50.40;;;;;;5096069;28;19912;-54
2023/05/22 08:55:48;;;;;;;;;;;23.10;50.90;;;;;;5092259;28;19927;-54
2023/05/22 08:58:14;;;;;;;;;;;23.10;51.20;;;;;;5089800;28;19920;-54
2023/05/22 09:00:40;;;;;;;;;;;23.00;51.30;;;;;;5087048;28;19923;-54
2023/05/22 09:03:08;;;;;;;;;;;23.00;51.50;;;;;;5080679;28;19916;-55
2023/05/22 09:05:35;;;;;;;;;;;23.10;51.60;;;;;;5069776;28;19920;-53
2023/05/22 09:08:03;;;;;;;;;;;23.00;51.50;;;;;;5087203;28;19920;-54
2023/05/22 09:10:28;;;;;;;;;;;23.10;51.70;;;;;;5072618;28;19916;-54
2023/05/22 09:13:04;;;;;;;;;;;23.10;51.80;;;;;;5081256;28;19927;-54
2023/05/22 09:15:32;;;;;;;;;;;23.10;51.80;;;;;;5084582;28;20422;-53
2023/05/22 09:17:58;;;;;;;;;;;23.10;52.00;;;;;;5086910;28;19924;-53
2023/05/22 09:20:24;;;;;;;;;;;23.10;52.00;;;;;;5092543;28;19951;-54
2023/05/22 09:22:49;;;;;;;;;;;23.10;52.00;;;;;;5081401;28;19938;-53
2023/05/22 09:25:18;;;;;;;;;;;23.20;52.10;;;;;;5081865;28;20376;-54
2023/05/22 09:27:45;;;;;;;;;;;23.20;52.00;;;;;;5082063;28;20566;-53
2023/05/22 09:30:11;;;;;;;;;;;23.20;52.20;;;;;;5083271;28;19984;-54
2023/05/22 09:32:36;;;;;;;;;;;23.20;52.10;;;;;;5085058;28;19912;-54
2023/05/22 09:35:03;;;;;;;;;;;23.20;52.10;;;;;;5065286;28;20014;-54
2023/05/22 09:37:31;;;;;;;;;;;23.20;52.10;;;;;;5083378;28;20284;-54
2023/05/22 09:39:57;;;;;;;;;;;23.20;52.00;;;;;;5082879;28;20034;-54
2023/05/22 09:42:23;;;;;;;;;;;23.30;52.10;;;;;;5061859;28;19991;-54
2023/05/22 09:44:48;;;;;;;;;;;23.30;52.10;;;;;;5065820;28;19990;-54
2023/05/22 09:47:14;;;;;;;;;;;23.30;52.00;;;;;;5076318;28;19928;-54
2023/05/22 09:49:40;;;;;;;;;;;23.30;52.10;;;;;;5066467;28;20261;-54
2023/05/22 09:52:06;;;;;;;;;;;23.40;52.10;;;;;;5083480;28;19916;-54
2023/05/22 09:54:32;;;;;;;;;;;23.40;52.80;;;;;;5053850;28;20311;-54
2023/05/22 09:56:57;;;;;;;;;;;23.40;52.10;;;;;;5082241;28;19944;-54
2023/05/22 09:59:29;;;;;;;;;;;23.40;52.10;;;;;;5084832;28;20018;-54
2023/05/22 10:01:54;;;;;;;;;;;23.40;52.20;;;;;;5090024;28;19924;-54
2023/05/22 10:04:20;;;;;;;;;;;23.50;52.20;;;;;;5087623;28;19963;-54
2023/05/22 10:06:48;;;;;;;;;;;23.50;52.30;;;;;;5066885;28;20335;-54
2023/05/22 10:09:15;;;;;;;;;;;23.50;52.10;;;;;;5083754;28;19927;-54
2023/05/22 10:11:41;;;;;;;;;;;23.50;52.10;;;;;;5073324;28;19943;-54
2023/05/22 10:14:06;;;;;;;;;;;23.50;52.10;;;;;;5064181;28;19956;-55
2023/05/22 10:16:32;;;;;;;;;;;23.60;52.20;;;;;;5081454;28;19924;-54
2023/05/22 10:18:58;;;;;;;;;;;23.60;52.20;;;;;;5084043;28;20444;-54
2023/05/22 10:21:24;;;;;;;;;;;23.60;52.20;;;;;;5090008;28;20015;-54
2023/05/22 10:23:50;;;;;;;;;;;23.60;52.20;;;;;;5089073;28;19916;-54
2023/05/22 10:26:16;;;;;;;;;;;23.60;52.10;;;;;;5065788;28;20035;-54
2023/05/22 10:28:42;;;;;;;;;;;23.70;52.30;;;;;;5083867;28;19999;-54
2023/05/22 10:31:10;;;;;;;;;;;23.70;52.20;;;;;;5089177;28;19939;-54
2023/05/22 10:33:38;;;;;;;;;;;23.70;52.20;;;;;;5060094;28;19986;-53
2023/05/22 10:36:05;;;;;;;;;;;23.70;52.20;;;;;;5081000;28;20300;-54
2023/05/22 10:38:37;;;;;;;;;;;23.70;52.20;;;;;;5061337;28;19915;-53
2023/05/22 10:41:02;;;;;;;;;;;23.70;52.20;;;;;;5082620;28;20070;-53
2023/05/22 10:43:31;;;;;;;;;;;23.80;52.20;;;;;;5085343;28;20405;-52
2023/05/22 10:46:00;;;;;;;;;;;23.80;51.20;;;;;;5072856;28;20009;-53
2023/05/22 10:48:26;;;;;;;;;;;24.00;50.40;;;;;;5090390;28;19963;-54
2023/05/22 10:50:52;;;;;;;;;;;24.20;49.80;;;;;;5081092;28;19916;-53
2023/05/22 10:53:23;;;;;;;;;;;24.30;49.60;;;;;;5067562;28;19923;-53
2023/05/22 10:55:49;;;;;;;;;;;24.40;49.10;;;;;;5066014;28;20300;-53
2023/05/22 10:58:15;;;;;;;;;;;24.50;48.80;;;;;;5063442;28;19918;-53
2023/05/22 11:00:41;;;;;;;;;;;24.50;48.70;;;;;;5087399;28;19912;-53
2023/05/22 11:03:07;;;;;;;;;;;24.50;48.10;;;;;;5084121;28;19916;-53
2023/05/22 11:05:35;;;;;;;;;;;24.50;48.40;;;;;;5067187;28;19912;-53
2023/05/22 11:08:10;;;;;;;;;;;24.40;48.40;;;;;;5084826;28;20292;-53
2023/05/22 11:10:55;;;;;;;;;;;24.40;48.10;;;;;;5082276;28;20378;-53
2023/05/22 11:13:20;;;;;;;;;;;24.40;48.10;;;;;;5081416;28;19920;-54
2023/05/22 11:15:46;;;;;;;;;;;24.40;48.30;;;;;;5085367;28;20314;-54
2023/05/22 11:18:13;;;;;;;;;;;24.30;48.60;;;;;;5074900;28;20057;-54
2023/05/22 11:20:38;;;;;;;;;;;24.40;48.10;;;;;;5090811;28;19941;-53
2023/05/22 11:23:04;;;;;;;;;;;24.40;48.20;;;;;;5082981;28;19920;-54
2023/05/22 11:25:31;;;;;;;;;;;24.40;48.40;;;;;;5086769;28;20003;-54
2023/05/22 11:27:56;;;;;;;;;;;24.40;48.10;;;;;;5087312;28;19912;-54
2023/05/22 11:30:25;;;;;;;;;;;24.50;48.10;;;;;;5091197;28;19922;-53
2023/05/22 11:32:51;;;;;;;;;;;24.50;47.60;;;;;;5090820;28;19912;-55
2023/05/22 11:35:16;;;;;;;;;;;24.50;48.80;;;;;;5077932;28;19909;-54
2023/05/22 11:37:42;;;;;;;;;;;24.50;48.20;;;;;;5066043;28;19997;-54
2023/05/22 11:40:08;;;;;;;;;;;24.40;48.20;;;;;;5083595;28;19912;-54
2023/05/22 11:42:33;;;;;;;;;;;24.60;47.40;;;;;;5065653;28;19920;-54
2023/05/22 11:44:59;;;;;;;;;;;24.70;47.00;;;;;;5081027;28;20035;-54
2023/05/22 11:47:27;;;;;;;;;;;24.80;47.00;;;;;;5086271;28;20381;-53
2023/05/22 11:49:53;;;;;;;;;;;24.80;46.50;;;;;;5090450;28;19920;-54
2023/05/22 11:52:18;;;;;;;;;;;24.80;45.70;;;;;;5103741;28;19912;-54
2023/05/22 11:54:47;;;;;;;;;;;24.70;46.20;;;;;;5091546;28;19920;-54
2023/05/22 11:57:13;;;;;;;;;;;24.70;46.10;;;;;;5080726;28;20343;-54
2023/05/22 11:59:38;;;;;;;;;;;24.60;47.00;;;;;;5083279;28;19916;-54
2023/05/22 12:02:04;;;;;;;;;;;24.60;46.50;;;;;;5077516;28;19916;-54
2023/05/22 12:04:31;;;;;;;;;;;24.60;46.50;;;;;;5070926;28;19920;-54
2023/05/22 12:06:56;;;;;;;;;;;24.60;46.80;;;;;;5082972;28;19934;-54
2023/05/22 12:09:22;;;;;;;;;;;24.60;46.60;;;;;;5083313;28;20358;-54
2023/05/22 12:11:47;;;;;;;;;;;24.70;46.30;;;;;;5086165;28;19912;-53
2023/05/22 12:14:13;;;;;;;;;;;24.70;46.10;;;;;;5074296;28;20284;-53
2023/05/22 12:16:38;;;;;;;;;;;24.80;46.30;;;;;;5078743;28;19967;-54
2023/05/22 12:19:05;;;;;;;;;;;24.80;46.00;;;;;;5077963;28;20432;-54
2023/05/22 12:21:31;;;;;;;;;;;24.90;45.50;;;;;;5091802;28;19944;-54
2023/05/22 12:23:56;;;;;;;;;;;24.90;45.80;;;;;;5077879;28;19958;-54
2023/05/22 12:26:22;;;;;;;;;;;25.00;45.40;;;;;;5090410;28;19909;-54
2023/05/22 12:28:50;;;;;;;;;;;25.00;45.10;;;;;;5091969;28;20322;-54
2023/05/22 12:31:22;;;;;;;;;;;25.00;45.10;;;;;;5068708;28;20003;-55
2023/05/22 12:33:47;;;;;;;;;;;24.90;46.20;;;;;;5084376;28;19935;-54
2023/05/22 12:36:13;;;;;;;;;;;24.90;45.50;;;;;;5087945;28;19920;-54
2023/05/22 12:38:39;;;;;;;;;;;24.90;45.70;;;;;;5091091;28;19940;-54
2023/05/22 12:41:04;;;;;;;;;;;24.90;45.50;;;;;;5092482;28;20011;-54
2023/05/22 12:43:30;;;;;;;;;;;24.90;45.50;;;;;;5090335;28;19916;-54
2023/05/22 12:45:55;;;;;;;;;;;24.90;45.00;;;;;;5083287;28;19912;-53
2023/05/22 12:48:21;;;;;;;;;;;24.90;46.00;;;;;;5074656;28;19913;-54
2023/05/22 12:50:47;;;;;;;;;;;25.00;45.10;;;;;;5072126;28;20392;-54
2023/05/22 12:53:12;;;;;;;;;;;25.10;45.20;;;;;;5092961;28;19919;-53
2023/05/22 12:55:38;;;;;;;;;;;25.10;45.00;;;;;;5075082;28;19916;-54
2023/05/22 12:58:03;;;;;;;;;;;25.10;45.00;;;;;;5090883;28;20015;-54
2023/05/22 13:00:29;;;;;;;;;;;25.20;44.90;;;;;;5075522;28;19912;-54
2023/05/22 13:02:54;;;;;;;;;;;25.30;44.60;;;;;;5090727;28;20007;-54
2023/05/22 13:05:20;;;;;;;;;;;25.30;45.30;;;;;;5087443;28;19919;-53
2023/05/22 13:07:45;;;;;;;;;;;25.20;45.10;;;;;;5087782;28;20388;-54
2023/05/22 13:10:12;;;;;;;;;;;25.20;44.50;;;;;;5078362;28;20446;-54
2023/05/22 13:12:37;;;;;;;;;;;25.30;44.60;;;;;;5080871;28;19951;-54
2023/05/22 13:15:03;;;;;;;;;;;25.40;45.00;;;;;;5087661;28;19951;-53
2023/05/22 13:17:29;;;;;;;;;;;25.40;44.70;;;;;;5088876;28;19920;-54
2023/05/22 13:19:54;;;;;;;;;;;25.40;44.30;;;;;;5077134;28;19920;-54
2023/05/22 13:22:20;;;;;;;;;;;25.30;44.50;;;;;;5088883;28;19918;-53
2023/05/22 13:24:46;;;;;;;;;;;25.30;43.40;;;;;;5089231;28;19935;-54
2023/05/22 13:27:11;;;;;;;;;;;25.40;43.40;;;;;;5072629;28;19916;-54
2023/05/22 13:29:37;;;;;;;;;;;25.40;43.70;;;;;;5081830;28;19912;-54
2023/05/22 13:32:03;;;;;;;;;;;25.40;43.90;;;;;;5081053;28;20423;-54
2023/05/22 13:34:28;;;;;;;;;;;25.30;44.30;;;;;;5084863;28;20261;-53
2023/05/22 13:36:54;;;;;;;;;;;25.20;44.10;;;;;;5073286;28;20485;-53
2023/05/22 13:39:19;;;;;;;;;;;25.20;44.00;;;;;;5091201;28;19916;-54
2023/05/22 13:41:45;;;;;;;;;;;25.30;43.70;;;;;;5084446;28;19912;-54
2023/05/22 13:44:10;;;;;;;;;;;25.20;43.50;;;;;;5091435;28;19915;-53
2023/05/22 13:46:36;;;;;;;;;;;25.20;43.40;;;;;;5089015;28;19920;-53
2023/05/22 13:49:01;;;;;;;;;;;25.30;43.30;;;;;;5088240;28;19916;-53
2023/05/22 13:51:27;;;;;;;;;;;25.20;42.60;;;;;;5101548;28;19945;-54
2023/05/22 13:53:52;;;;;;;;;;;25.20;43.10;;;;;;5085182;28;19916;-53
2023/05/22 13:56:17;;;;;;;;;;;25.20;43.10;;;;;;5085038;28;19916;-53
2023/05/22 13:58:43;;;;;;;;;;;25.10;42.90;;;;;;5085964;28;20295;-53
2023/05/22 14:01:08;;;;;;;;;;;25.20;43.20;;;;;;5078068;28;20106;-54
2023/05/22 14:03:34;;;;;;;;;;;25.20;43.10;;;;;;5087261;28;19921;-54
2023/05/22 14:05:59;;;;;;;;;;;25.10;43.20;;;;;;5066670;28;19916;-54
2023/05/22 14:08:25;;;;;;;;;;;25.20;43.20;;;;;;5088166;28;20390;-54
2023/05/22 14:10:50;;;;;;;;;;;25.10;43.00;;;;;;5088476;28;19982;-54